sensor_id;sensor_type;location;lat;lon;timestamp;pressure;altitude;pressure_sealevel;temperature;humidity
49843;BME280;55559;48.898;9.184;2022-10-04T00:00:42;99234.03;;;7.34;100.00
49843;BME280;55559;48.898;9.184;2022-10-04T00:03:20;99232.50;;;7.30;100.00
49843;BME280;55559;48.898;9.184;2022-10-04T00:06:48;99221.38;;;7.25;100.00
49843;BME280;55559;48.898;9.184;2022-10-04T00:09:47;99234.50;;;7.26;100.00
49843;BME280;55559;48.898;9.184;2022-10-04T00:12:31;99229.88;;;7.30;100.00
49843;BME280;55559;48.898;9.184;2022-10-04T00:15:25;99240.16;;;7.35;100.00
49843;BME280;55559;48.898;9.184;2022-10-04T00:18:40;99235.53;;;7.38;100.00
49843;BME280;55559;48.898;9.184;2022-10-04T00:21:11;99222.91;;;7.29;100.00
49843;BME280;55559;48.898;9.184;2022-10-04T00:24:35;99217.78;;;7.26;100.00
49843;BME280;55559;48.898;9.184;2022-10-04T00:27:24;99223.56;;;7.18;100.00
49843;BME280;55559;48.898;9.184;2022-10-04T00:31:07;99224.25;;;7.22;100.00
49843;BME280;55559;48.898;9.184;2022-10-04T00:37:50;99218.84;;;7.09;100.00
49843;BME280;55559;48.898;9.184;2022-10-04T00:40:30;99212.91;;;7.05;100.00
49843;BME280;55559;48.898;9.184;2022-10-04T00:43:27;99215.00;;;7.00;100.00
49843;BME280;55559;48.898;9.184;2022-10-04T00:46:42;99219.69;;;7.10;100.00
49843;BME280;55559;48.898;9.184;2022-10-04T00:49:11;99220.66;;;7.08;100.00
49843;BME280;55559;48.898;9.184;2022-10-04T00:52:06;99211.59;;;6.98;100.00
49843;BME280;55559;48.898;9.184;2022-10-04T00:55:02;99205.47;;;6.83;100.00
49843;BME280;55559;48.898;9.184;2022-10-04T00:57:56;99205.25;;;6.72;100.00
49843;BME280;55559;48.898;9.184;2022-10-04T01:00:51;99209.91;;;6.68;100.00
49843;BME280;55559;48.898;9.184;2022-10-04T01:03:56;99205.44;;;6.55;100.00
49843;BME280;55559;48.898;9.184;2022-10-04T01:07:48;99198.81;;;6.47;100.00
49843;BME280;55559;48.898;9.184;2022-10-04T01:13:21;99197.41;;;6.27;100.00
49843;BME280;55559;48.898;9.184;2022-10-04T01:16:27;99212.56;;;6.24;100.00
49843;BME280;55559;48.898;9.184;2022-10-04T01:25:48;99203.19;;;6.04;100.00
49843;BME280;55559;48.898;9.184;2022-10-04T01:29:43;99194.56;;;6.00;100.00
49843;BME280;55559;48.898;9.184;2022-10-04T01:32:20;99193.81;;;5.98;100.00
49843;BME280;55559;48.898;9.184;2022-10-04T01:35:44;99185.19;;;5.94;100.00
49843;BME280;55559;48.898;9.184;2022-10-04T01:38:30;99183.34;;;5.96;100.00
49843;BME280;55559;48.898;9.184;2022-10-04T01:41:29;99169.06;;;6.15;100.00
49843;BME280;55559;48.898;9.184;2022-10-04T01:44:06;99169.28;;;6.26;100.00
49843;BME280;55559;48.898;9.184;2022-10-04T01:46:45;99167.22;;;6.31;100.00
49843;BME280;55559;48.898;9.184;2022-10-04T01:49:17;99154.47;;;6.38;100.00
49843;BME280;55559;48.898;9.184;2022-10-04T01:52:41;99162.97;;;6.43;100.00
49843;BME280;55559;48.898;9.184;2022-10-04T01:55:50;99152.22;;;6.46;100.00
49843;BME280;55559;48.898;9.184;2022-10-04T02:01:15;99152.69;;;6.53;100.00
49843;BME280;55559;48.898;9.184;2022-10-04T02:04:07;99160.91;;;6.48;100.00
49843;BME280;55559;48.898;9.184;2022-10-04T02:06:58;99158.34;;;6.47;100.00
49843;BME280;55559;48.898;9.184;2022-10-04T02:09:34;99161.28;;;6.57;100.00
49843;BME280;55559;48.898;9.184;2022-10-04T02:12:42;99139.16;;;6.29;100.00
49843;BME280;55559;48.898;9.184;2022-10-04T02:15:13;99146.69;;;6.06;100.00
49843;BME280;55559;48.898;9.184;2022-10-04T02:18:10;99139.75;;;5.89;100.00
49843;BME280;55559;48.898;9.184;2022-10-04T02:24:36;99143.88;;;5.93;100.00
49843;BME280;55559;48.898;9.184;2022-10-04T02:27:28;99148.09;;;6.12;100.00
49843;BME280;55559;48.898;9.184;2022-10-04T02:30:06;99136.66;;;6.27;100.00
49843;BME280;55559;48.898;9.184;2022-10-04T02:32:43;99139.47;;;6.39;100.00
49843;BME280;55559;48.898;9.184;2022-10-04T02:36:02;99139.47;;;6.39;100.00
49843;BME280;55559;48.898;9.184;2022-10-04T02:39:02;99152.09;;;6.33;100.00
49843;BME280;55559;48.898;9.184;2022-10-04T02:42:02;99139.88;;;6.32;100.00
49843;BME280;55559;48.898;9.184;2022-10-04T02:44:35;99150.53;;;6.31;100.00
49843;BME280;55559;48.898;9.184;2022-10-04T02:47:56;99139.38;;;6.26;100.00
49843;BME280;55559;48.898;9.184;2022-10-04T02:50:29;99138.81;;;6.21;100.00
49843;BME280;55559;48.898;9.184;2022-10-04T02:53:02;99137.28;;;6.17;100.00
49843;BME280;55559;48.898;9.184;2022-10-04T02:55:38;99130.09;;;6.19;100.00
49843;BME280;55559;48.898;9.184;2022-10-04T02:58:15;99136.91;;;6.23;100.00
49843;BME280;55559;48.898;9.184;2022-10-04T03:01:14;99126.19;;;6.26;100.00
49843;BME280;55559;48.898;9.184;2022-10-04T03:04:10;99122.75;;;6.24;100.00
49843;BME280;55559;48.898;9.184;2022-10-04T03:07:43;99131.91;;;6.18;100.00
49843;BME280;55559;48.898;9.184;2022-10-04T03:10:16;99123.31;;;6.14;100.00
49843;BME280;55559;48.898;9.184;2022-10-04T03:13:04;99111.06;;;6.13;100.00
49843;BME280;55559;48.898;9.184;2022-10-04T03:15:43;99116.63;;;6.23;100.00
49843;BME280;55559;48.898;9.184;2022-10-04T03:18:58;99104.97;;;6.27;100.00
49843;BME280;55559;48.898;9.184;2022-10-04T03:21:37;99115.31;;;6.30;100.00
49843;BME280;55559;48.898;9.184;2022-10-04T03:24:14;99111.47;;;6.36;100.00
49843;BME280;55559;48.898;9.184;2022-10-04T03:27:32;99110.41;;;6.39;100.00
49843;BME280;55559;48.898;9.184;2022-10-04T03:33:21;99108.81;;;6.36;100.00
49843;BME280;55559;48.898;9.184;2022-10-04T03:37:00;99112.31;;;6.37;100.00
49843;BME280;55559;48.898;9.184;2022-10-04T03:39:33;99107.78;;;6.39;100.00
49843;BME280;55559;48.898;9.184;2022-10-04T03:42:28;99108.81;;;6.36;100.00
49843;BME280;55559;48.898;9.184;2022-10-04T03:45:02;99105.31;;;6.36;100.00
49843;BME280;55559;48.898;9.184;2022-10-04T03:47:57;99107.94;;;6.36;100.00
49843;BME280;55559;48.898;9.184;2022-10-04T03:51:03;99094.28;;;6.29;100.00
49843;BME280;55559;48.898;9.184;2022-10-04T03:54:03;99098.72;;;6.28;100.00
49843;BME280;55559;48.898;9.184;2022-10-04T03:56:55;99104.19;;;6.25;100.00
49843;BME280;55559;48.898;9.184;2022-10-04T03:59:32;99109.63;;;6.22;100.00
49843;BME280;55559;48.898;9.184;2022-10-04T04:02:18;99097.50;;;6.20;100.00
49843;BME280;55559;48.898;9.184;2022-10-04T04:09:58;99098.25;;;6.22;100.00
49843;BME280;55559;48.898;9.184;2022-10-04T04:12:38;99090.41;;;6.20;100.00
49843;BME280;55559;48.898;9.184;2022-10-04T04:15:09;99087.84;;;6.19;100.00
49843;BME280;55559;48.898;9.184;2022-10-04T04:17:50;99086.94;;;6.20;100.00
49843;BME280;55559;48.898;9.184;2022-10-04T04:20:41;99081.72;;;6.18;100.00
49843;BME280;55559;48.898;9.184;2022-10-04T04:23:42;99082.78;;;6.16;100.00
49843;BME280;55559;48.898;9.184;2022-10-04T04:26:24;99078.25;;;6.18;100.00
49843;BME280;55559;48.898;9.184;2022-10-04T04:29:00;99080.25;;;6.14;100.00
49843;BME280;55559;48.898;9.184;2022-10-04T04:32:49;99087.09;;;6.17;100.00
49843;BME280;55559;48.898;9.184;2022-10-04T04:35:32;99085.03;;;6.07;100.00
49843;BME280;55559;48.898;9.184;2022-10-04T04:38:16;99087.78;;;6.06;100.00
49843;BME280;55559;48.898;9.184;2022-10-04T04:41:06;99090.22;;;6.09;100.00
49843;BME280;55559;48.898;9.184;2022-10-04T04:43:43;99091.91;;;6.10;100.00
49843;BME280;55559;48.898;9.184;2022-10-04T04:46:13;99085.88;;;6.08;100.00
49843;BME280;55559;48.898;9.184;2022-10-04T04:49:04;99089.66;;;6.04;100.00
49843;BME280;55559;48.898;9.184;2022-10-04T04:51:32;99102.16;;;6.00;100.00
49843;BME280;55559;48.898;9.184;2022-10-04T04:54:21;99108.31;;;6.01;100.00
49843;BME280;55559;48.898;9.184;2022-10-04T05:01:05;99104.72;;;6.02;100.00
49843;BME280;55559;48.898;9.184;2022-10-04T05:04:03;99118.78;;;6.02;100.00
49843;BME280;55559;48.898;9.184;2022-10-04T05:06:35;99127.91;;;5.96;100.00
49843;BME280;55559;48.898;9.184;2022-10-04T05:09:33;99133.31;;;5.93;100.00
49843;BME280;55559;48.898;9.184;2022-10-04T05:12:08;99138.13;;;5.87;100.00
49843;BME280;55559;48.898;9.184;2022-10-04T05:15:07;99140.56;;;6.06;100.00
49843;BME280;55559;48.898;9.184;2022-10-04T05:17:44;99134.25;;;6.08;100.00
49843;BME280;55559;48.898;9.184;2022-10-04T05:20:34;99125.97;;;6.14;100.00
49843;BME280;55559;48.898;9.184;2022-10-04T05:23:07;99134.91;;;6.12;100.00
49843;BME280;55559;48.898;9.184;2022-10-04T05:25:43;99126.16;;;6.11;100.00
49843;BME280;55559;48.898;9.184;2022-10-04T05:28:29;99137.38;;;6.15;100.00
49843;BME280;55559;48.898;9.184;2022-10-04T05:31:21;99135.59;;;6.16;100.00
49843;BME280;55559;48.898;9.184;2022-10-04T05:33:57;99130.19;;;6.17;100.00
49843;BME280;55559;48.898;9.184;2022-10-04T05:40:51;99116.84;;;6.35;100.00
49843;BME280;55559;48.898;9.184;2022-10-04T05:43:34;99112.97;;;6.40;100.00
49843;BME280;55559;48.898;9.184;2022-10-04T05:46:22;99110.88;;;6.45;100.00
49843;BME280;55559;48.898;9.184;2022-10-04T05:48:54;99114.66;;;6.56;100.00
49843;BME280;55559;48.898;9.184;2022-10-04T05:51:28;99115.31;;;6.59;100.00
49843;BME280;55559;48.898;9.184;2022-10-04T05:54:23;99111.53;;;6.63;100.00
49843;BME280;55559;48.898;9.184;2022-10-04T06:01:12;99110.03;;;6.74;100.00
49843;BME280;55559;48.898;9.184;2022-10-04T06:04:23;99107.00;;;6.80;100.00
49843;BME280;55559;48.898;9.184;2022-10-04T06:07:14;99106.91;;;6.81;100.00
49843;BME280;55559;48.898;9.184;2022-10-04T06:13:18;99099.13;;;6.93;100.00
49843;BME280;55559;48.898;9.184;2022-10-04T06:16:10;99093.16;;;7.03;100.00
49843;BME280;55559;48.898;9.184;2022-10-04T06:19:42;99083.69;;;7.14;100.00
49843;BME280;55559;48.898;9.184;2022-10-04T06:22:16;99093.66;;;7.23;100.00
49843;BME280;55559;48.898;9.184;2022-10-04T06:24:49;99096.75;;;7.30;100.00
49843;BME280;55559;48.898;9.184;2022-10-04T06:28:17;99099.59;;;7.26;100.00
49843;BME280;55559;48.898;9.184;2022-10-04T06:42:20;99101.22;;;7.69;100.00
49843;BME280;55559;48.898;9.184;2022-10-04T06:45:41;99098.47;;;7.83;100.00
49843;BME280;55559;48.898;9.184;2022-10-04T06:49:24;99106.16;;;8.01;100.00
49843;BME280;55559;48.898;9.184;2022-10-04T07:02:02;99101.16;;;8.22;100.00
49843;BME280;55559;48.898;9.184;2022-10-04T07:05:14;99106.56;;;8.33;100.00
49843;BME280;55559;48.898;9.184;2022-10-04T07:08:13;99108.59;;;8.30;100.00
49843;BME280;55559;48.898;9.184;2022-10-04T07:11:15;99100.19;;;8.36;100.00
49843;BME280;55559;48.898;9.184;2022-10-04T07:13:52;99112.09;;;8.43;100.00
49843;BME280;55559;48.898;9.184;2022-10-04T07:16:48;99115.28;;;8.48;100.00
49843;BME280;55559;48.898;9.184;2022-10-04T07:20:12;99107.00;;;8.53;100.00
49843;BME280;55559;48.898;9.184;2022-10-04T07:22:45;99106.47;;;8.61;100.00
49843;BME280;55559;48.898;9.184;2022-10-04T07:25:42;99120.25;;;8.66;100.00
49843;BME280;55559;48.898;9.184;2022-10-04T07:28:29;99121.81;;;8.81;100.00
49843;BME280;55559;48.898;9.184;2022-10-04T07:31:34;99131.78;;;8.90;100.00
49843;BME280;55559;48.898;9.184;2022-10-04T07:34:09;99125.78;;;9.00;100.00
49843;BME280;55559;48.898;9.184;2022-10-04T07:37:06;99123.16;;;9.24;100.00
49843;BME280;55559;48.898;9.184;2022-10-04T07:40:04;99140.00;;;9.36;100.00
49843;BME280;55559;48.898;9.184;2022-10-04T07:43:37;99136.78;;;9.43;100.00
49843;BME280;55559;48.898;9.184;2022-10-04T07:46:38;99132.66;;;9.63;100.00
49843;BME280;55559;48.898;9.184;2022-10-04T07:49:14;99132.78;;;9.62;100.00
49843;BME280;55559;48.898;9.184;2022-10-04T07:52:01;99116.16;;;9.71;100.00
49843;BME280;55559;48.898;9.184;2022-10-04T07:54:55;99110.03;;;9.82;100.00
49843;BME280;55559;48.898;9.184;2022-10-04T07:58:32;99116.06;;;9.84;100.00
49843;BME280;55559;48.898;9.184;2022-10-04T08:01:44;99116.97;;;9.96;100.00
49843;BME280;55559;48.898;9.184;2022-10-04T08:04:51;99130.16;;;10.09;100.00
49843;BME280;55559;48.898;9.184;2022-10-04T08:11:15;99112.53;;;10.08;100.00
49843;BME280;55559;48.898;9.184;2022-10-04T08:14:37;99107.53;;;9.92;100.00
49843;BME280;55559;48.898;9.184;2022-10-04T08:17:16;99103.53;;;9.86;100.00
49843;BME280;55559;48.898;9.184;2022-10-04T08:26:39;99105.63;;;9.69;100.00
49843;BME280;55559;48.898;9.184;2022-10-04T08:30:37;99107.41;;;9.93;100.00
49843;BME280;55559;48.898;9.184;2022-10-04T08:33:50;99104.81;;;10.16;100.00
49843;BME280;55559;48.898;9.184;2022-10-04T08:37:09;99100.13;;;10.31;100.00
49843;BME280;55559;48.898;9.184;2022-10-04T08:40:17;99102.69;;;10.32;100.00
49843;BME280;55559;48.898;9.184;2022-10-04T08:56:30;99117.63;;;11.24;100.00
49843;BME280;55559;48.898;9.184;2022-10-04T09:13:14;99105.44;;;12.07;100.00
49843;BME280;55559;48.898;9.184;2022-10-04T09:15:50;99106.66;;;12.24;100.00
49843;BME280;55559;48.898;9.184;2022-10-04T09:26:39;99086.72;;;12.49;100.00
49843;BME280;55559;48.898;9.184;2022-10-04T09:29:46;99086.91;;;12.57;100.00
49843;BME280;55559;48.898;9.184;2022-10-04T09:33:08;99084.47;;;12.85;100.00
49843;BME280;55559;48.898;9.184;2022-10-04T09:36:30;99072.56;;;12.99;100.00
49843;BME280;55559;48.898;9.184;2022-10-04T09:39:54;99066.53;;;13.07;100.00
49843;BME280;55559;48.898;9.184;2022-10-04T09:43:03;99070.94;;;13.27;100.00
49843;BME280;55559;48.898;9.184;2022-10-04T09:52:36;99076.31;;;13.47;100.00
49843;BME280;55559;48.898;9.184;2022-10-04T10:07:43;99075.13;;;14.65;100.00
49843;BME280;55559;48.898;9.184;2022-10-04T10:12:37;99080.34;;;14.57;100.00
49843;BME280;55559;48.898;9.184;2022-10-04T10:56:27;99059.41;;;16.24;100.00
49843;BME280;55559;48.898;9.184;2022-10-04T11:10:20;99053.06;;;16.94;100.00
49843;BME280;55559;48.898;9.184;2022-10-04T11:16:45;99049.50;;;16.93;100.00
49843;BME280;55559;48.898;9.184;2022-10-04T11:27:32;99039.91;;;17.58;98.27
49843;BME280;55559;48.898;9.184;2022-10-04T11:31:25;99035.69;;;17.39;100.00
49843;BME280;55559;48.898;9.184;2022-10-04T11:53:36;98999.53;;;18.07;97.95
49843;BME280;55559;48.898;9.184;2022-10-04T11:57:19;99001.25;;;18.00;99.08
49843;BME280;55559;48.898;9.184;2022-10-04T12:00:08;98994.06;;;18.40;92.21
49843;BME280;55559;48.898;9.184;2022-10-04T12:06:19;98985.13;;;18.79;88.96
49843;BME280;55559;48.898;9.184;2022-10-04T12:24:32;98981.41;;;18.49;87.36
49843;BME280;55559;48.898;9.184;2022-10-04T12:32:18;98977.13;;;18.63;91.15
49843;BME280;55559;48.898;9.184;2022-10-04T12:59:21;98960.66;;;18.57;88.58
49843;BME280;55559;48.898;9.184;2022-10-04T13:23:43;98957.44;;;18.93;78.77
49843;BME280;55559;48.898;9.184;2022-10-04T13:26:41;98958.91;;;19.04;78.00
49843;BME280;55559;48.898;9.184;2022-10-04T13:36:41;98956.81;;;19.14;75.11
49843;BME280;55559;48.898;9.184;2022-10-04T13:50:08;98949.47;;;18.77;79.94
49843;BME280;55559;48.898;9.184;2022-10-04T13:56:12;98952.38;;;18.99;75.68
49843;BME280;55559;48.898;9.184;2022-10-04T14:00:19;98947.66;;;19.01;76.96
49843;BME280;55559;48.898;9.184;2022-10-04T14:10:09;98947.41;;;19.10;69.71
49843;BME280;55559;48.898;9.184;2022-10-04T14:27:44;98923.56;;;18.68;93.23
49843;BME280;55559;48.898;9.184;2022-10-04T14:35:10;98914.16;;;18.95;87.41
49843;BME280;55559;48.898;9.184;2022-10-04T14:53:37;98917.34;;;18.36;96.89
49843;BME280;55559;48.898;9.184;2022-10-04T14:57:11;98922.00;;;18.50;97.08
49843;BME280;55559;48.898;9.184;2022-10-04T15:04:07;98920.44;;;18.56;92.23
49843;BME280;55559;48.898;9.184;2022-10-04T15:07:37;98914.47;;;18.69;85.71
49843;BME280;55559;48.898;9.184;2022-10-04T15:10:51;98907.19;;;18.46;88.85
49843;BME280;55559;48.898;9.184;2022-10-04T15:14:18;98907.34;;;18.45;88.94
49843;BME280;55559;48.898;9.184;2022-10-04T15:20:45;98905.84;;;18.50;84.42
49843;BME280;55559;48.898;9.184;2022-10-04T15:32:59;98903.81;;;18.13;86.28
49843;BME280;55559;48.898;9.184;2022-10-04T15:47:28;98885.84;;;18.05;95.68
49843;BME280;55559;48.898;9.184;2022-10-04T15:50:52;98902.03;;;17.89;99.52
49843;BME280;55559;48.898;9.184;2022-10-04T16:11:39;98872.69;;;17.54;100.00
49843;BME280;55559;48.898;9.184;2022-10-04T16:17:25;98870.03;;;17.29;100.00
49843;BME280;55559;48.898;9.184;2022-10-04T16:20:49;98865.84;;;17.27;100.00
49843;BME280;55559;48.898;9.184;2022-10-04T16:24:32;98858.97;;;17.00;100.00
49843;BME280;55559;48.898;9.184;2022-10-04T16:35:44;98874.03;;;16.68;100.00
49843;BME280;55559;48.898;9.184;2022-10-04T16:38:47;98873.81;;;16.45;100.00
49843;BME280;55559;48.898;9.184;2022-10-04T16:43:22;98868.44;;;16.36;100.00
49843;BME280;55559;48.898;9.184;2022-10-04T16:47:59;98883.56;;;16.03;100.00
49843;BME280;55559;48.898;9.184;2022-10-04T16:51:06;98881.31;;;15.82;100.00
49843;BME280;55559;48.898;9.184;2022-10-04T17:09:38;98906.88;;;14.70;100.00
49843;BME280;55559;48.898;9.184;2022-10-04T17:20:13;98908.84;;;14.22;100.00
49843;BME280;55559;48.898;9.184;2022-10-04T17:24:14;98902.84;;;14.10;100.00
49843;BME280;55559;48.898;9.184;2022-10-04T17:38:39;98880.00;;;14.16;100.00
49843;BME280;55559;48.898;9.184;2022-10-04T17:41:58;98876.81;;;14.12;100.00
49843;BME280;55559;48.898;9.184;2022-10-04T17:45:45;98873.53;;;14.19;100.00
49843;BME280;55559;48.898;9.184;2022-10-04T17:56:35;98851.38;;;14.26;100.00
49843;BME280;55559;48.898;9.184;2022-10-04T18:07:36;98875.59;;;14.25;100.00
49843;BME280;55559;48.898;9.184;2022-10-04T18:18:29;98874.44;;;13.82;100.00
49843;BME280;55559;48.898;9.184;2022-10-04T18:33:28;98885.13;;;13.82;100.00
49843;BME280;55559;48.898;9.184;2022-10-04T18:45:16;98909.81;;;13.56;100.00
49843;BME280;55559;48.898;9.184;2022-10-04T18:48:14;98906.31;;;13.46;100.00
49843;BME280;55559;48.898;9.184;2022-10-04T18:51:34;98907.88;;;13.38;100.00
49843;BME280;55559;48.898;9.184;2022-10-04T18:55:35;98915.34;;;13.15;100.00
49843;BME280;55559;48.898;9.184;2022-10-04T18:59:35;98915.34;;;13.06;100.00
49843;BME280;55559;48.898;9.184;2022-10-04T19:06:49;98920.38;;;12.79;100.00
49843;BME280;55559;48.898;9.184;2022-10-04T19:09:53;98916.19;;;12.77;100.00
49843;BME280;55559;48.898;9.184;2022-10-04T19:45:01;98950.94;;;12.46;100.00
49843;BME280;55559;48.898;9.184;2022-10-04T19:51:40;98951.38;;;12.41;100.00
49843;BME280;55559;48.898;9.184;2022-10-04T19:54:39;98953.44;;;12.28;100.00
49843;BME280;55559;48.898;9.184;2022-10-04T19:58:05;98951.56;;;12.19;100.00
49843;BME280;55559;48.898;9.184;2022-10-04T20:00:57;98960.91;;;12.03;100.00
49843;BME280;55559;48.898;9.184;2022-10-04T20:07:56;98972.88;;;11.88;100.00
49843;BME280;55559;48.898;9.184;2022-10-04T20:14:43;98978.84;;;11.80;100.00
49843;BME280;55559;48.898;9.184;2022-10-04T20:18:36;98984.47;;;11.77;100.00
49843;BME280;55559;48.898;9.184;2022-10-04T20:21:18;98981.19;;;11.73;100.00
49843;BME280;55559;48.898;9.184;2022-10-04T20:32:06;98997.78;;;11.56;100.00
49843;BME280;55559;48.898;9.184;2022-10-04T20:34:56;99000.56;;;11.54;100.00
49843;BME280;55559;48.898;9.184;2022-10-04T20:45:54;99018.03;;;11.47;100.00
49843;BME280;55559;48.898;9.184;2022-10-04T20:49:32;99024.66;;;11.32;100.00
49843;BME280;55559;48.898;9.184;2022-10-04T20:53:24;99027.34;;;11.21;100.00
49843;BME280;55559;48.898;9.184;2022-10-04T21:01:03;99043.22;;;11.11;100.00
49843;BME280;55559;48.898;9.184;2022-10-04T21:04:28;99054.25;;;11.06;100.00
49843;BME280;55559;48.898;9.184;2022-10-04T21:08:37;99060.56;;;11.05;100.00
49843;BME280;55559;48.898;9.184;2022-10-04T21:22:48;99063.75;;;10.65;100.00
49843;BME280;55559;48.898;9.184;2022-10-04T21:37:26;99066.31;;;10.44;100.00
49843;BME280;55559;48.898;9.184;2022-10-04T21:47:08;99066.16;;;10.23;100.00
49843;BME280;55559;48.898;9.184;2022-10-04T22:07:10;99075.31;;;10.08;100.00
49843;BME280;55559;48.898;9.184;2022-10-04T22:17:50;99064.53;;;9.98;100.00
49843;BME280;55559;48.898;9.184;2022-10-04T22:28:19;99058.16;;;10.00;100.00
49843;BME280;55559;48.898;9.184;2022-10-04T22:32:27;99041.63;;;10.19;100.00
49843;BME280;55559;48.898;9.184;2022-10-04T22:43:48;99028.25;;;10.32;100.00
49843;BME280;55559;48.898;9.184;2022-10-04T22:46:41;99022.44;;;10.38;100.00
49843;BME280;55559;48.898;9.184;2022-10-04T22:49:58;99016.16;;;10.51;100.00
49843;BME280;55559;48.898;9.184;2022-10-04T22:52:48;99015.19;;;10.52;100.00
49843;BME280;55559;48.898;9.184;2022-10-04T22:59:11;99019.19;;;10.46;100.00
49843;BME280;55559;48.898;9.184;2022-10-04T23:02:29;99017.59;;;10.43;100.00
49843;BME280;55559;48.898;9.184;2022-10-04T23:09:06;99023.38;;;10.26;100.00
49843;BME280;55559;48.898;9.184;2022-10-04T23:12:06;99022.66;;;10.13;100.00
49843;BME280;55559;48.898;9.184;2022-10-04T23:18:40;99019.03;;;10.02;100.00
49843;BME280;55559;48.898;9.184;2022-10-04T23:23:08;99014.06;;;9.98;100.00
49843;BME280;55559;48.898;9.184;2022-10-04T23:27:30;99007.19;;;9.95;100.00
49843;BME280;55559;48.898;9.184;2022-10-04T23:44:34;98995.81;;;9.71;100.00
49843;BME280;55559;48.898;9.184;2022-10-04T23:47:10;98994.97;;;9.70;100.00
49843;BME280;55559;48.898;9.184;2022-10-04T23:54:26;99000.84;;;9.62;100.00
49843;BME280;55559;48.898;9.184;2022-10-04T23:57:35;99000.97;;;9.61;100.00
